sensor_id;sensor_type;location;lat;lon;timestamp;temperature;humidity
46508;DHT22;32223;53.654;10.014;2023-03-01T00:00:19;-0.10;99.90
46508;DHT22;32223;53.654;10.014;2023-03-01T00:02:45;-0.10;99.90
46508;DHT22;32223;53.654;10.014;2023-03-01T00:05:10;-0.10;99.90
46508;DHT22;32223;53.654;10.014;2023-03-01T00:07:36;-0.20;99.90
46508;DHT22;32223;53.654;10.014;2023-03-01T00:10:02;-0.20;99.90
46508;DHT22;32223;53.654;10.014;2023-03-01T00:12:27;-0.20;99.90
46508;DHT22;32223;53.654;10.014;2023-03-01T00:14:53;-0.20;99.90
46508;DHT22;32223;53.654;10.014;2023-03-01T00:17:19;-0.20;99.90
46508;DHT22;32223;53.654;10.014;2023-03-01T00:19:44;-0.20;99.90
46508;DHT22;32223;53.654;10.014;2023-03-01T00:22:10;-0.20;99.90
46508;DHT22;32223;53.654;10.014;2023-03-01T00:24:35;-0.20;99.90
46508;DHT22;32223;53.654;10.014;2023-03-01T00:27:01;-0.20;99.90
46508;DHT22;32223;53.654;10.014;2023-03-01T00:29:27;-0.20;99.90
46508;DHT22;32223;53.654;10.014;2023-03-01T00:31:52;-0.10;99.90
46508;DHT22;32223;53.654;10.014;2023-03-01T00:34:18;-0.10;99.90
46508;DHT22;32223;53.654;10.014;2023-03-01T00:36:43;-0.20;99.90
46508;DHT22;32223;53.654;10.014;2023-03-01T00:39:12;-0.20;99.90
46508;DHT22;32223;53.654;10.014;2023-03-01T00:41:38;-0.10;99.90
46508;DHT22;32223;53.654;10.014;2023-03-01T00:44:05;-0.10;99.90
46508;DHT22;32223;53.654;10.014;2023-03-01T00:46:30;-0.20;99.90
46508;DHT22;32223;53.654;10.014;2023-03-01T00:48:56;-0.10;99.90
46508;DHT22;32223;53.654;10.014;2023-03-01T00:51:25;-0.20;99.90
46508;DHT22;32223;53.654;10.014;2023-03-01T00:53:53;-0.20;99.90
46508;DHT22;32223;53.654;10.014;2023-03-01T00:56:20;-0.20;99.90
46508;DHT22;32223;53.654;10.014;2023-03-01T00:58:45;-0.30;99.90
46508;DHT22;32223;53.654;10.014;2023-03-01T01:01:18;-0.30;99.90
46508;DHT22;32223;53.654;10.014;2023-03-01T01:04:06;-0.30;99.90
46508;DHT22;32223;53.654;10.014;2023-03-01T01:06:50;-0.40;99.90
46508;DHT22;32223;53.654;10.014;2023-03-01T01:09:17;-0.30;99.90
46508;DHT22;32223;53.654;10.014;2023-03-01T01:11:51;-0.30;99.90
46508;DHT22;32223;53.654;10.014;2023-03-01T01:14:18;-0.30;99.90
46508;DHT22;32223;53.654;10.014;2023-03-01T01:16:44;-0.40;99.90
46508;DHT22;32223;53.654;10.014;2023-03-01T01:19:11;-0.30;99.90
46508;DHT22;32223;53.654;10.014;2023-03-01T01:21:37;-0.30;99.90
46508;DHT22;32223;53.654;10.014;2023-03-01T01:24:04;-0.40;99.90
46508;DHT22;32223;53.654;10.014;2023-03-01T01:26:31;-0.30;99.90
46508;DHT22;32223;53.654;10.014;2023-03-01T01:28:58;-0.40;99.90
46508;DHT22;32223;53.654;10.014;2023-03-01T01:31:25;-0.40;99.90
46508;DHT22;32223;53.654;10.014;2023-03-01T01:33:52;-0.30;99.90
46508;DHT22;32223;53.654;10.014;2023-03-01T01:36:18;-0.30;99.90
46508;DHT22;32223;53.654;10.014;2023-03-01T01:38:43;-0.30;99.90
46508;DHT22;32223;53.654;10.014;2023-03-01T01:41:10;-0.20;99.90
46508;DHT22;32223;53.654;10.014;2023-03-01T01:44:30;-0.20;99.90
46508;DHT22;32223;53.654;10.014;2023-03-01T01:46:36;-0.30;99.90
46508;DHT22;32223;53.654;10.014;2023-03-01T01:49:07;-0.30;99.90
46508;DHT22;32223;53.654;10.014;2023-03-01T01:51:39;-0.30;99.90
46508;DHT22;32223;53.654;10.014;2023-03-01T01:54:12;-0.30;99.90
46508;DHT22;32223;53.654;10.014;2023-03-01T01:56:40;-0.30;99.90
46508;DHT22;32223;53.654;10.014;2023-03-01T01:59:07;-0.30;99.90
46508;DHT22;32223;53.654;10.014;2023-03-01T02:01:33;-0.40;99.90
46508;DHT22;32223;53.654;10.014;2023-03-01T02:03:59;-0.50;99.90
46508;DHT22;32223;53.654;10.014;2023-03-01T02:06:29;-0.50;99.90
46508;DHT22;32223;53.654;10.014;2023-03-01T02:09:04;-0.50;99.90
46508;DHT22;32223;53.654;10.014;2023-03-01T02:11:31;-0.60;99.90
46508;DHT22;32223;53.654;10.014;2023-03-01T02:13:58;-0.60;99.90
46508;DHT22;32223;53.654;10.014;2023-03-01T02:16:23;-0.70;99.90
46508;DHT22;32223;53.654;10.014;2023-03-01T02:18:50;-0.80;99.90
46508;DHT22;32223;53.654;10.014;2023-03-01T02:23:44;-0.80;99.90
46508;DHT22;32223;53.654;10.014;2023-03-01T02:28:51;-0.90;99.90
46508;DHT22;32223;53.654;10.014;2023-03-01T02:31:18;-0.90;99.90
46508;DHT22;32223;53.654;10.014;2023-03-01T02:34:04;-0.90;99.90
46508;DHT22;32223;53.654;10.014;2023-03-01T02:36:38;-0.90;99.90
46508;DHT22;32223;53.654;10.014;2023-03-01T02:39:07;-0.90;99.90
46508;DHT22;32223;53.654;10.014;2023-03-01T02:41:41;-1.00;99.90
46508;DHT22;32223;53.654;10.014;2023-03-01T02:44:08;-1.00;99.90
46508;DHT22;32223;53.654;10.014;2023-03-01T02:46:42;-1.00;99.90
46508;DHT22;32223;53.654;10.014;2023-03-01T02:49:29;-1.00;99.90
46508;DHT22;32223;53.654;10.014;2023-03-01T02:52:12;-1.00;99.90
46508;DHT22;32223;53.654;10.014;2023-03-01T02:54:56;-1.00;99.90
46508;DHT22;32223;53.654;10.014;2023-03-01T02:57:25;-1.10;99.90
46508;DHT22;32223;53.654;10.014;2023-03-01T02:59:54;-1.10;99.90
46508;DHT22;32223;53.654;10.014;2023-03-01T03:02:26;-1.10;99.90
46508;DHT22;32223;53.654;10.014;2023-03-01T03:05:26;-1.00;99.90
46508;DHT22;32223;53.654;10.014;2023-03-01T03:07:52;-1.00;99.90
46508;DHT22;32223;53.654;10.014;2023-03-01T03:10:38;-1.00;99.90
46508;DHT22;32223;53.654;10.014;2023-03-01T03:13:13;-0.90;99.90
46508;DHT22;32223;53.654;10.014;2023-03-01T03:15:40;-0.90;99.90
46508;DHT22;32223;53.654;10.014;2023-03-01T03:18:10;-0.90;99.90
46508;DHT22;32223;53.654;10.014;2023-03-01T03:20:36;-0.80;99.90
46508;DHT22;32223;53.654;10.014;2023-03-01T03:23:03;-0.80;99.90
46508;DHT22;32223;53.654;10.014;2023-03-01T03:25:29;-0.70;99.90
46508;DHT22;32223;53.654;10.014;2023-03-01T03:27:55;-0.60;99.90
46508;DHT22;32223;53.654;10.014;2023-03-01T03:30:24;-0.50;99.90
46508;DHT22;32223;53.654;10.014;2023-03-01T03:32:50;-0.40;99.90
46508;DHT22;32223;53.654;10.014;2023-03-01T03:35:40;-0.20;99.90
46508;DHT22;32223;53.654;10.014;2023-03-01T03:38:09;-0.10;99.90
46508;DHT22;32223;53.654;10.014;2023-03-01T03:40:42;-0.20;99.90
46508;DHT22;32223;53.654;10.014;2023-03-01T03:43:10;-0.10;99.90
46508;DHT22;32223;53.654;10.014;2023-03-01T03:45:36;-0.10;99.90
46508;DHT22;32223;53.654;10.014;2023-03-01T03:48:03;-0.10;99.90
46508;DHT22;32223;53.654;10.014;2023-03-01T03:50:30;-0.10;99.90
46508;DHT22;32223;53.654;10.014;2023-03-01T03:52:55;-0.10;99.90
46508;DHT22;32223;53.654;10.014;2023-03-01T03:55:21;-0.10;99.90
46508;DHT22;32223;53.654;10.014;2023-03-01T03:57:48;-0.20;99.90
46508;DHT22;32223;53.654;10.014;2023-03-01T04:00:21;-0.10;99.90
46508;DHT22;32223;53.654;10.014;2023-03-01T04:02:49;-0.10;99.90
46508;DHT22;32223;53.654;10.014;2023-03-01T04:05:17;0.20;99.90
46508;DHT22;32223;53.654;10.014;2023-03-01T04:07:43;0.50;99.90
46508;DHT22;32223;53.654;10.014;2023-03-01T04:10:12;0.80;99.90
46508;DHT22;32223;53.654;10.014;2023-03-01T04:12:38;0.70;99.90
46508;DHT22;32223;53.654;10.014;2023-03-01T04:15:05;0.50;99.90
46508;DHT22;32223;53.654;10.014;2023-03-01T04:17:43;0.40;99.90
46508;DHT22;32223;53.654;10.014;2023-03-01T04:20:10;0.30;99.90
46508;DHT22;32223;53.654;10.014;2023-03-01T04:22:40;0.20;99.90
46508;DHT22;32223;53.654;10.014;2023-03-01T04:25:06;0.10;99.90
46508;DHT22;32223;53.654;10.014;2023-03-01T04:27:35;0.10;99.90
46508;DHT22;32223;53.654;10.014;2023-03-01T04:30:03;0.10;99.90
46508;DHT22;32223;53.654;10.014;2023-03-01T04:32:29;0.00;99.90
46508;DHT22;32223;53.654;10.014;2023-03-01T04:34:55;0.00;99.90
46508;DHT22;32223;53.654;10.014;2023-03-01T04:37:20;0.00;99.90
46508;DHT22;32223;53.654;10.014;2023-03-01T04:39:46;0.00;99.90
46508;DHT22;32223;53.654;10.014;2023-03-01T04:42:13;0.10;99.90
46508;DHT22;32223;53.654;10.014;2023-03-01T04:44:39;0.10;99.90
46508;DHT22;32223;53.654;10.014;2023-03-01T04:47:04;0.10;99.90
46508;DHT22;32223;53.654;10.014;2023-03-01T04:49:30;0.10;99.90
46508;DHT22;32223;53.654;10.014;2023-03-01T04:51:56;0.10;99.90
46508;DHT22;32223;53.654;10.014;2023-03-01T04:54:23;0.20;99.90
46508;DHT22;32223;53.654;10.014;2023-03-01T04:56:49;0.20;99.90
46508;DHT22;32223;53.654;10.014;2023-03-01T04:59:14;0.20;99.90
46508;DHT22;32223;53.654;10.014;2023-03-01T05:01:40;0.30;99.90
46508;DHT22;32223;53.654;10.014;2023-03-01T05:04:08;0.40;99.90
46508;DHT22;32223;53.654;10.014;2023-03-01T05:06:38;0.40;99.90
46508;DHT22;32223;53.654;10.014;2023-03-01T05:09:04;0.40;99.90
46508;DHT22;32223;53.654;10.014;2023-03-01T05:11:30;0.50;99.90
46508;DHT22;32223;53.654;10.014;2023-03-01T05:14:02;0.40;99.90
46508;DHT22;32223;53.654;10.014;2023-03-01T05:16:27;0.50;99.90
46508;DHT22;32223;53.654;10.014;2023-03-01T05:18:53;0.60;99.90
46508;DHT22;32223;53.654;10.014;2023-03-01T05:21:21;0.70;99.90
46508;DHT22;32223;53.654;10.014;2023-03-01T05:23:47;0.80;99.90
46508;DHT22;32223;53.654;10.014;2023-03-01T05:26:12;0.80;99.90
46508;DHT22;32223;53.654;10.014;2023-03-01T05:28:38;0.80;99.90
46508;DHT22;32223;53.654;10.014;2023-03-01T05:31:05;0.80;99.90
46508;DHT22;32223;53.654;10.014;2023-03-01T05:33:36;0.90;99.90
46508;DHT22;32223;53.654;10.014;2023-03-01T05:36:02;1.00;99.90
46508;DHT22;32223;53.654;10.014;2023-03-01T05:38:28;1.10;99.90
46508;DHT22;32223;53.654;10.014;2023-03-01T05:40:53;1.10;99.90
46508;DHT22;32223;53.654;10.014;2023-03-01T05:43:19;1.10;99.90
46508;DHT22;32223;53.654;10.014;2023-03-01T05:45:44;1.10;99.90
46508;DHT22;32223;53.654;10.014;2023-03-01T05:48:11;1.10;99.90
46508;DHT22;32223;53.654;10.014;2023-03-01T05:50:40;1.00;99.90
46508;DHT22;32223;53.654;10.014;2023-03-01T05:53:16;0.90;99.90
46508;DHT22;32223;53.654;10.014;2023-03-01T05:55:42;0.80;99.90
46508;DHT22;32223;53.654;10.014;2023-03-01T05:58:14;0.80;99.90
46508;DHT22;32223;53.654;10.014;2023-03-01T06:00:40;0.70;99.90
46508;DHT22;32223;53.654;10.014;2023-03-01T06:03:08;0.60;99.90
46508;DHT22;32223;53.654;10.014;2023-03-01T06:05:35;0.40;99.90
46508;DHT22;32223;53.654;10.014;2023-03-01T06:08:01;0.40;99.90
46508;DHT22;32223;53.654;10.014;2023-03-01T06:10:27;0.30;99.90
46508;DHT22;32223;53.654;10.014;2023-03-01T06:12:53;0.20;99.90
46508;DHT22;32223;53.654;10.014;2023-03-01T06:15:19;0.20;99.90
46508;DHT22;32223;53.654;10.014;2023-03-01T06:17:45;0.30;99.90
46508;DHT22;32223;53.654;10.014;2023-03-01T06:20:17;0.30;99.90
46508;DHT22;32223;53.654;10.014;2023-03-01T06:22:44;0.20;99.90
46508;DHT22;32223;53.654;10.014;2023-03-01T06:25:11;0.20;99.90
46508;DHT22;32223;53.654;10.014;2023-03-01T06:27:38;0.30;99.90
46508;DHT22;32223;53.654;10.014;2023-03-01T06:30:04;0.30;99.90
46508;DHT22;32223;53.654;10.014;2023-03-01T06:32:29;0.20;99.90
46508;DHT22;32223;53.654;10.014;2023-03-01T06:34:56;0.20;99.90
46508;DHT22;32223;53.654;10.014;2023-03-01T06:37:24;0.20;99.90
46508;DHT22;32223;53.654;10.014;2023-03-01T06:39:49;0.20;99.90
46508;DHT22;32223;53.654;10.014;2023-03-01T06:42:15;0.30;99.90
46508;DHT22;32223;53.654;10.014;2023-03-01T06:44:40;0.30;99.90
46508;DHT22;32223;53.654;10.014;2023-03-01T06:47:06;0.40;99.90
46508;DHT22;32223;53.654;10.014;2023-03-01T06:49:32;0.40;99.90
46508;DHT22;32223;53.654;10.014;2023-03-01T06:51:57;0.50;99.90
46508;DHT22;32223;53.654;10.014;2023-03-01T06:54:23;0.60;99.90
46508;DHT22;32223;53.654;10.014;2023-03-01T06:56:49;0.70;99.90
46508;DHT22;32223;53.654;10.014;2023-03-01T06:59:16;0.90;99.90
46508;DHT22;32223;53.654;10.014;2023-03-01T07:01:42;1.00;99.90
46508;DHT22;32223;53.654;10.014;2023-03-01T07:04:07;1.00;99.90
46508;DHT22;32223;53.654;10.014;2023-03-01T07:06:33;1.10;99.90
46508;DHT22;32223;53.654;10.014;2023-03-01T07:08:59;1.30;99.90
46508;DHT22;32223;53.654;10.014;2023-03-01T07:11:24;1.30;99.90
46508;DHT22;32223;53.654;10.014;2023-03-01T07:13:50;1.20;99.90
46508;DHT22;32223;53.654;10.014;2023-03-01T07:16:15;1.20;99.90
46508;DHT22;32223;53.654;10.014;2023-03-01T07:18:41;1.30;99.90
46508;DHT22;32223;53.654;10.014;2023-03-01T07:21:08;1.50;99.90
46508;DHT22;32223;53.654;10.014;2023-03-01T07:23:34;1.60;99.90
46508;DHT22;32223;53.654;10.014;2023-03-01T07:26:00;1.60;99.90
46508;DHT22;32223;53.654;10.014;2023-03-01T07:28:27;1.70;99.90
46508;DHT22;32223;53.654;10.014;2023-03-01T07:30:53;1.80;99.90
46508;DHT22;32223;53.654;10.014;2023-03-01T07:33:19;1.90;99.90
46508;DHT22;32223;53.654;10.014;2023-03-01T07:35:44;1.80;99.90
46508;DHT22;32223;53.654;10.014;2023-03-01T07:38:10;1.70;99.90
46508;DHT22;32223;53.654;10.014;2023-03-01T07:40:36;1.70;99.90
46508;DHT22;32223;53.654;10.014;2023-03-01T07:43:02;1.80;99.90
46508;DHT22;32223;53.654;10.014;2023-03-01T07:45:28;1.90;99.90
46508;DHT22;32223;53.654;10.014;2023-03-01T07:47:54;2.00;99.90
46508;DHT22;32223;53.654;10.014;2023-03-01T07:50:21;2.10;99.90
46508;DHT22;32223;53.654;10.014;2023-03-01T07:52:48;2.10;99.90
46508;DHT22;32223;53.654;10.014;2023-03-01T07:55:14;2.10;99.90
46508;DHT22;32223;53.654;10.014;2023-03-01T07:57:40;2.20;99.90
46508;DHT22;32223;53.654;10.014;2023-03-01T08:00:07;2.10;99.90
46508;DHT22;32223;53.654;10.014;2023-03-01T08:02:33;2.20;99.90
46508;DHT22;32223;53.654;10.014;2023-03-01T08:04:58;2.20;99.90
46508;DHT22;32223;53.654;10.014;2023-03-01T08:07:24;2.30;99.90
46508;DHT22;32223;53.654;10.014;2023-03-01T08:09:50;2.30;99.90
46508;DHT22;32223;53.654;10.014;2023-03-01T08:12:15;2.40;99.90
46508;DHT22;32223;53.654;10.014;2023-03-01T08:14:44;2.30;99.90
46508;DHT22;32223;53.654;10.014;2023-03-01T08:17:09;2.40;99.90
46508;DHT22;32223;53.654;10.014;2023-03-01T08:19:35;2.30;99.90
46508;DHT22;32223;53.654;10.014;2023-03-01T08:22:04;2.30;99.90
46508;DHT22;32223;53.654;10.014;2023-03-01T08:24:29;2.30;99.90
46508;DHT22;32223;53.654;10.014;2023-03-01T08:26:55;2.40;99.90
46508;DHT22;32223;53.654;10.014;2023-03-01T08:29:21;2.50;99.90
46508;DHT22;32223;53.654;10.014;2023-03-01T08:31:48;2.50;99.90
46508;DHT22;32223;53.654;10.014;2023-03-01T08:34:16;2.60;99.90
46508;DHT22;32223;53.654;10.014;2023-03-01T08:36:44;2.60;99.90
46508;DHT22;32223;53.654;10.014;2023-03-01T08:39:13;2.60;99.90
46508;DHT22;32223;53.654;10.014;2023-03-01T08:41:39;2.70;99.90
46508;DHT22;32223;53.654;10.014;2023-03-01T08:44:05;2.80;99.90
46508;DHT22;32223;53.654;10.014;2023-03-01T08:46:37;2.90;99.90
46508;DHT22;32223;53.654;10.014;2023-03-01T08:49:08;3.00;99.90
46508;DHT22;32223;53.654;10.014;2023-03-01T08:51:34;3.00;99.90
46508;DHT22;32223;53.654;10.014;2023-03-01T08:54:06;3.20;99.90
46508;DHT22;32223;53.654;10.014;2023-03-01T08:56:32;3.20;99.90
46508;DHT22;32223;53.654;10.014;2023-03-01T08:58:58;3.40;99.90
46508;DHT22;32223;53.654;10.014;2023-03-01T09:01:24;3.50;99.90
46508;DHT22;32223;53.654;10.014;2023-03-01T09:03:49;3.70;99.90
46508;DHT22;32223;53.654;10.014;2023-03-01T09:06:15;3.70;99.90
46508;DHT22;32223;53.654;10.014;2023-03-01T09:08:46;3.80;99.90
46508;DHT22;32223;53.654;10.014;2023-03-01T09:11:15;4.00;99.90
46508;DHT22;32223;53.654;10.014;2023-03-01T09:13:42;4.10;99.90
46508;DHT22;32223;53.654;10.014;2023-03-01T09:16:08;4.30;99.90
46508;DHT22;32223;53.654;10.014;2023-03-01T09:18:35;4.50;99.90
46508;DHT22;32223;53.654;10.014;2023-03-01T09:21:09;4.50;99.90
46508;DHT22;32223;53.654;10.014;2023-03-01T09:23:36;4.50;99.90
46508;DHT22;32223;53.654;10.014;2023-03-01T09:26:02;4.60;99.90
46508;DHT22;32223;53.654;10.014;2023-03-01T09:28:28;4.60;99.90
46508;DHT22;32223;53.654;10.014;2023-03-01T09:30:57;4.60;99.90
46508;DHT22;32223;53.654;10.014;2023-03-01T09:33:22;4.50;99.90
46508;DHT22;32223;53.654;10.014;2023-03-01T09:35:48;4.40;99.90
46508;DHT22;32223;53.654;10.014;2023-03-01T09:38:13;4.40;99.90
46508;DHT22;32223;53.654;10.014;2023-03-01T09:40:43;4.40;99.90
46508;DHT22;32223;53.654;10.014;2023-03-01T09:43:27;4.50;99.90
46508;DHT22;32223;53.654;10.014;2023-03-01T09:45:59;4.70;99.90
46508;DHT22;32223;53.654;10.014;2023-03-01T09:48:27;4.80;99.90
46508;DHT22;32223;53.654;10.014;2023-03-01T09:50:56;4.80;99.90
46508;DHT22;32223;53.654;10.014;2023-03-01T09:53:28;4.90;99.90
46508;DHT22;32223;53.654;10.014;2023-03-01T09:56:19;5.00;99.90
46508;DHT22;32223;53.654;10.014;2023-03-01T10:01:44;5.20;99.90
46508;DHT22;32223;53.654;10.014;2023-03-01T10:07:11;5.30;99.90
46508;DHT22;32223;53.654;10.014;2023-03-01T10:09:40;5.30;99.90
46508;DHT22;32223;53.654;10.014;2023-03-01T10:12:22;5.30;99.90
46508;DHT22;32223;53.654;10.014;2023-03-01T10:17:46;5.40;99.90
46508;DHT22;32223;53.654;10.014;2023-03-01T10:20:19;5.40;99.90
46508;DHT22;32223;53.654;10.014;2023-03-01T10:22:45;5.30;99.90
46508;DHT22;32223;53.654;10.014;2023-03-01T10:25:23;5.30;99.90
46508;DHT22;32223;53.654;10.014;2023-03-01T10:27:58;5.30;99.90
46508;DHT22;32223;53.654;10.014;2023-03-01T10:30:38;5.40;99.90
46508;DHT22;32223;53.654;10.014;2023-03-01T10:33:23;5.40;99.90
46508;DHT22;32223;53.654;10.014;2023-03-01T10:35:50;5.50;99.90
46508;DHT22;32223;53.654;10.014;2023-03-01T10:38:17;5.50;99.90
46508;DHT22;32223;53.654;10.014;2023-03-01T10:40:52;5.60;99.90
46508;DHT22;32223;53.654;10.014;2023-03-01T10:43:18;5.70;99.90
46508;DHT22;32223;53.654;10.014;2023-03-01T10:45:44;5.80;99.90
46508;DHT22;32223;53.654;10.014;2023-03-01T10:48:17;5.80;99.90
46508;DHT22;32223;53.654;10.014;2023-03-01T10:50:46;5.90;99.90
46508;DHT22;32223;53.654;10.014;2023-03-01T10:53:36;5.90;99.90
46508;DHT22;32223;53.654;10.014;2023-03-01T10:56:11;5.90;99.90
46508;DHT22;32223;53.654;10.014;2023-03-01T10:59:02;5.90;99.90
46508;DHT22;32223;53.654;10.014;2023-03-01T11:01:31;5.90;99.90
46508;DHT22;32223;53.654;10.014;2023-03-01T11:06:29;5.80;99.90
46508;DHT22;32223;53.654;10.014;2023-03-01T11:08:54;5.80;99.90
46508;DHT22;32223;53.654;10.014;2023-03-01T11:11:29;5.90;99.90
46508;DHT22;32223;53.654;10.014;2023-03-01T11:14:12;6.00;99.90
46508;DHT22;32223;53.654;10.014;2023-03-01T11:16:39;6.20;99.90
46508;DHT22;32223;53.654;10.014;2023-03-01T11:21:47;6.40;99.90
46508;DHT22;32223;53.654;10.014;2023-03-01T11:24:17;6.60;99.90
46508;DHT22;32223;53.654;10.014;2023-03-01T11:26:50;6.70;99.90
46508;DHT22;32223;53.654;10.014;2023-03-01T11:29:32;6.80;99.90
46508;DHT22;32223;53.654;10.014;2023-03-01T11:32:08;7.00;99.90
46508;DHT22;32223;53.654;10.014;2023-03-01T11:37:35;7.40;99.90
46508;DHT22;32223;53.654;10.014;2023-03-01T11:40:17;7.60;99.90
46508;DHT22;32223;53.654;10.014;2023-03-01T11:45:20;7.80;99.90
46508;DHT22;32223;53.654;10.014;2023-03-01T11:50:40;8.00;99.90
46508;DHT22;32223;53.654;10.014;2023-03-01T11:55:58;8.10;99.90
46508;DHT22;32223;53.654;10.014;2023-03-01T12:06:55;8.40;99.90
46508;DHT22;32223;53.654;10.014;2023-03-01T12:12:17;8.80;99.90
46508;DHT22;32223;53.654;10.014;2023-03-01T12:15:06;9.10;99.90
46508;DHT22;32223;53.654;10.014;2023-03-01T12:20:28;9.40;99.90
46508;DHT22;32223;53.654;10.014;2023-03-01T12:23:31;9.60;99.90
46508;DHT22;32223;53.654;10.014;2023-03-01T12:31:51;10.70;99.90
46508;DHT22;32223;53.654;10.014;2023-03-01T12:40:28;12.80;99.90
46508;DHT22;32223;53.654;10.014;2023-03-01T12:43:15;13.70;99.90
46508;DHT22;32223;53.654;10.014;2023-03-01T12:51:15;15.10;99.90
46508;DHT22;32223;53.654;10.014;2023-03-01T12:53:48;15.50;99.90
46508;DHT22;32223;53.654;10.014;2023-03-01T12:56:17;16.10;99.90
46508;DHT22;32223;53.654;10.014;2023-03-01T12:58:51;16.20;99.90
46508;DHT22;32223;53.654;10.014;2023-03-01T13:04:15;16.90;96.20
46508;DHT22;32223;53.654;10.014;2023-03-01T13:09:46;16.90;95.90
46508;DHT22;32223;53.654;10.014;2023-03-01T13:14:59;16.40;95.00
46508;DHT22;32223;53.654;10.014;2023-03-01T13:17:33;16.70;94.00
46508;DHT22;32223;53.654;10.014;2023-03-01T13:20:13;17.20;93.30
46508;DHT22;32223;53.654;10.014;2023-03-01T13:22:38;17.70;92.30
46508;DHT22;32223;53.654;10.014;2023-03-01T13:25:18;17.80;90.90
46508;DHT22;32223;53.654;10.014;2023-03-01T13:27:45;17.60;91.00
46508;DHT22;32223;53.654;10.014;2023-03-01T13:30:43;17.60;90.20
46508;DHT22;32223;53.654;10.014;2023-03-01T13:35:57;17.30;90.10
46508;DHT22;32223;53.654;10.014;2023-03-01T13:41:07;16.50;91.10
46508;DHT22;32223;53.654;10.014;2023-03-01T13:43:37;16.80;90.20
46508;DHT22;32223;53.654;10.014;2023-03-01T13:46:18;16.50;90.70
46508;DHT22;32223;53.654;10.014;2023-03-01T13:48:51;16.40;90.60
46508;DHT22;32223;53.654;10.014;2023-03-01T13:51:30;17.20;87.80
46508;DHT22;32223;53.654;10.014;2023-03-01T13:53:56;17.30;88.30
46508;DHT22;32223;53.654;10.014;2023-03-01T13:56:28;16.90;88.00
46508;DHT22;32223;53.654;10.014;2023-03-01T13:59:01;17.00;87.70
46508;DHT22;32223;53.654;10.014;2023-03-01T14:01:35;16.90;87.10
46508;DHT22;32223;53.654;10.014;2023-03-01T14:04:03;17.70;85.40
46508;DHT22;32223;53.654;10.014;2023-03-01T14:06:42;17.50;86.20
46508;DHT22;32223;53.654;10.014;2023-03-01T14:09:24;18.20;82.70
46508;DHT22;32223;53.654;10.014;2023-03-01T14:14:50;18.90;81.60
46508;DHT22;32223;53.654;10.014;2023-03-01T14:17:38;19.40;80.40
46508;DHT22;32223;53.654;10.014;2023-03-01T14:20:27;19.00;79.80
46508;DHT22;32223;53.654;10.014;2023-03-01T14:22:55;18.10;79.40
46508;DHT22;32223;53.654;10.014;2023-03-01T14:25:30;18.50;78.80
46508;DHT22;32223;53.654;10.014;2023-03-01T14:28:04;19.10;77.30
46508;DHT22;32223;53.654;10.014;2023-03-01T14:30:39;18.70;77.50
46508;DHT22;32223;53.654;10.014;2023-03-01T14:36:06;18.00;75.80
46508;DHT22;32223;53.654;10.014;2023-03-01T14:38:38;17.80;75.90
46508;DHT22;32223;53.654;10.014;2023-03-01T14:41:14;17.80;76.70
46508;DHT22;32223;53.654;10.014;2023-03-01T14:43:46;17.90;74.80
46508;DHT22;32223;53.654;10.014;2023-03-01T14:46:21;17.80;74.50
46508;DHT22;32223;53.654;10.014;2023-03-01T14:48:54;18.10;73.50
46508;DHT22;32223;53.654;10.014;2023-03-01T14:51:21;17.80;74.00
46508;DHT22;32223;53.654;10.014;2023-03-01T14:53:46;18.00;74.20
46508;DHT22;32223;53.654;10.014;2023-03-01T14:56:14;17.60;71.90
46508;DHT22;32223;53.654;10.014;2023-03-01T14:58:40;17.50;72.80
46508;DHT22;32223;53.654;10.014;2023-03-01T15:01:06;17.50;71.70
46508;DHT22;32223;53.654;10.014;2023-03-01T15:03:47;17.10;71.20
46508;DHT22;32223;53.654;10.014;2023-03-01T15:06:21;16.70;71.40
46508;DHT22;32223;53.654;10.014;2023-03-01T15:08:50;16.50;70.60
46508;DHT22;32223;53.654;10.014;2023-03-01T15:11:28;17.00;71.20
46508;DHT22;32223;53.654;10.014;2023-03-01T15:13:54;16.60;71.10
46508;DHT22;32223;53.654;10.014;2023-03-01T15:16:27;16.20;72.80
46508;DHT22;32223;53.654;10.014;2023-03-01T15:19:01;16.10;73.90
46508;DHT22;32223;53.654;10.014;2023-03-01T15:21:38;16.20;74.00
46508;DHT22;32223;53.654;10.014;2023-03-01T15:26:59;16.60;73.00
46508;DHT22;32223;53.654;10.014;2023-03-01T15:29:29;16.80;71.20
46508;DHT22;32223;53.654;10.014;2023-03-01T15:32:01;16.30;72.40
46508;DHT22;32223;53.654;10.014;2023-03-01T15:34:38;15.30;74.60
46508;DHT22;32223;53.654;10.014;2023-03-01T15:37:06;14.80;75.80
46508;DHT22;32223;53.654;10.014;2023-03-01T15:39:57;13.70;79.00
46508;DHT22;32223;53.654;10.014;2023-03-01T15:45:08;11.00;90.20
46508;DHT22;32223;53.654;10.014;2023-03-01T15:47:39;10.30;91.90
46508;DHT22;32223;53.654;10.014;2023-03-01T15:50:11;9.70;95.70
46508;DHT22;32223;53.654;10.014;2023-03-01T15:52:42;9.30;99.90
46508;DHT22;32223;53.654;10.014;2023-03-01T15:55:26;8.90;99.90
46508;DHT22;32223;53.654;10.014;2023-03-01T15:58:13;8.50;99.90
46508;DHT22;32223;53.654;10.014;2023-03-01T16:00:39;8.10;99.90
46508;DHT22;32223;53.654;10.014;2023-03-01T16:03:06;7.80;99.90
46508;DHT22;32223;53.654;10.014;2023-03-01T16:05:35;7.70;99.90
46508;DHT22;32223;53.654;10.014;2023-03-01T16:08:01;7.40;99.90
46508;DHT22;32223;53.654;10.014;2023-03-01T16:10:27;7.30;99.90
46508;DHT22;32223;53.654;10.014;2023-03-01T16:12:53;7.10;99.90
46508;DHT22;32223;53.654;10.014;2023-03-01T16:15:22;6.90;99.90
46508;DHT22;32223;53.654;10.014;2023-03-01T16:17:49;6.80;99.90
46508;DHT22;32223;53.654;10.014;2023-03-01T16:20:15;6.70;99.90
46508;DHT22;32223;53.654;10.014;2023-03-01T16:22:44;6.50;99.90
46508;DHT22;32223;53.654;10.014;2023-03-01T16:25:12;6.50;99.90
46508;DHT22;32223;53.654;10.014;2023-03-01T16:27:38;6.40;99.90
46508;DHT22;32223;53.654;10.014;2023-03-01T16:30:07;6.20;99.90
46508;DHT22;32223;53.654;10.014;2023-03-01T16:32:37;6.20;99.90
46508;DHT22;32223;53.654;10.014;2023-03-01T16:35:02;6.10;99.90
46508;DHT22;32223;53.654;10.014;2023-03-01T16:37:31;6.00;99.90
46508;DHT22;32223;53.654;10.014;2023-03-01T16:39:57;6.00;99.90
46508;DHT22;32223;53.654;10.014;2023-03-01T16:42:23;5.90;99.90
46508;DHT22;32223;53.654;10.014;2023-03-01T16:44:48;5.80;99.90
46508;DHT22;32223;53.654;10.014;2023-03-01T16:47:14;5.70;99.90
46508;DHT22;32223;53.654;10.014;2023-03-01T16:49:39;5.70;99.90
46508;DHT22;32223;53.654;10.014;2023-03-01T16:52:05;5.60;99.90
46508;DHT22;32223;53.654;10.014;2023-03-01T16:54:30;5.50;99.90
46508;DHT22;32223;53.654;10.014;2023-03-01T16:56:56;5.40;99.90
46508;DHT22;32223;53.654;10.014;2023-03-01T16:59:22;5.30;99.90
46508;DHT22;32223;53.654;10.014;2023-03-01T17:01:47;5.20;99.90
46508;DHT22;32223;53.654;10.014;2023-03-01T17:04:13;5.10;99.90
46508;DHT22;32223;53.654;10.014;2023-03-01T17:06:38;5.00;99.90